Main page
METAR-TAF:

METAR-TAF

Airports :

Mount Pleasant Municipal Airport

Mount Pleasant, Michigan, United States

latitude: 43-37N, longitude: 084-44W, elevation: 230 m

Current weather observation

The report was made 17 minutes ago, at 18:15 UTC
Wind 16 kt from the South/Southwest with gusts up to 24 kt
Temperature 26°C
Humidity 61%
Pressure 1006 hPa
Visibility: 16.1 km
Scattered clouds at a height of 3200 ft
Broken clouds at a height of 4300 ft

METAR: KMOP 251815Z AUTO 21016G24KT 10SM SCT032 BKN043 26/18 A2971 RMK AO2 T02610176

Time: 14:32 (18:32 UTC)


TAF: missing

Weather observations and forecasts of more than 4000 airports (METAR and TAF reports).

The available stations are represented by yellow and red dots on the map.

Hover mouse over dot to see the name of the station.

Then click to see weather observations and forecasts.

To change the map : click on the green buttons with a black cross to zoom in, on the green button with a dash to zoom out, or on the green arrows for adjacent maps.


METAR-TAF: